createdAt,value
2019-04-16T00:00:27.418Z,70.54
2019-04-16T00:03:00.383Z,70.78
2019-04-16T00:05:30.428Z,71.38
2019-04-16T00:08:10.049Z,71.42
2019-04-16T00:11:00.149Z,70.35
2019-04-16T00:13:30.206Z,70.88
2019-04-16T00:15:59.063Z,71.09
2019-04-16T00:18:27.460Z,71.21
2019-04-16T00:21:10.651Z,71.73
2019-04-16T00:23:46.616Z,71.25
2019-04-16T00:26:13.994Z,71.88
2019-04-16T00:28:42.391Z,71.10
2019-04-16T00:31:11.856Z,70.92
2019-04-16T00:33:42.864Z,70.92
2019-04-16T00:36:10.390Z,73.02
2019-04-16T00:38:40.799Z,72.18
2019-04-16T00:41:08.881Z,72.18
2019-04-16T00:43:37.288Z,72.06
2019-04-16T00:46:11.459Z,72.06
2019-04-16T00:48:40.621Z,71.87
2019-04-16T00:51:12.743Z,70.80
2019-04-16T00:53:41.148Z,71.57
2019-04-16T00:56:17.969Z,71.86
2019-04-16T00:58:46.369Z,71.63
2019-04-16T01:01:14.744Z,71.29
2019-04-16T01:03:43.127Z,71.56
2019-04-16T01:06:12.597Z,72.14
2019-04-16T01:08:53.612Z,71.89
2019-04-16T01:11:12.110Z,71.89
2019-04-16T01:13:40.512Z,71.78
2019-04-16T01:16:08.897Z,71.68
2019-04-16T01:18:38.855Z,71.47
2019-04-16T01:21:07.491Z,71.45
2019-04-16T01:23:35.878Z,72.15
2019-04-16T01:26:04.339Z,71.57
2019-04-16T01:28:36.757Z,72.34
2019-04-16T01:31:15.627Z,71.46
2019-04-16T01:33:55.462Z,71.25
2019-04-16T01:36:37.435Z,72.76
2019-04-16T01:39:17.367Z,71.60
2019-04-16T01:41:38.729Z,71.91
2019-04-16T01:44:07.148Z,72.50
2019-04-16T01:46:35.531Z,72.62
2019-04-16T01:49:04.008Z,72.28
2019-04-16T01:51:33.475Z,72.64
2019-04-16T01:54:02.914Z,72.21
2019-04-16T01:56:31.326Z,72.21
2019-04-16T01:59:04.556Z,72.96
2019-04-16T02:01:29.841Z,72.75
2019-04-16T02:03:59.233Z,71.91
2019-04-16T02:06:27.659Z,72.11
2019-04-16T02:08:56.045Z,71.95
2019-04-16T02:11:24.440Z,72.54
2019-04-16T02:13:52.836Z,72.70
2019-04-16T02:16:22.340Z,73.09
2019-04-16T02:18:52.358Z,72.76
2019-04-16T02:21:20.774Z,72.13
2019-04-16T02:23:49.159Z,73.37
2019-04-16T02:26:17.543Z,73.30
2019-04-16T02:28:45.956Z,72.65
2019-04-16T02:31:16.222Z,72.60
2019-04-16T02:33:44.459Z,73.55
2019-04-16T02:36:13.046Z,73.50
2019-04-16T02:38:52.320Z,73.24
2019-04-16T02:41:14.329Z,73.68
2019-04-16T02:43:42.741Z,73.68
2019-04-16T02:46:11.360Z,73.38
2019-04-16T02:48:41.884Z,73.89
2019-04-16T02:51:15.253Z,73.39
2019-04-16T02:53:47.973Z,73.20
2019-04-16T02:56:36.551Z,73.94
2019-04-16T02:59:12.271Z,73.53
2019-04-16T03:01:53.731Z,73.84
2019-04-16T03:04:40.161Z,74.35
2019-04-16T03:07:08.559Z,74.39
2019-04-16T03:09:39.861Z,74.05
2019-04-16T03:12:07.061Z,74.27
2019-04-16T03:14:35.467Z,74.94
2019-04-16T03:17:14.734Z,74.49
2019-04-16T03:19:44.741Z,73.97
2019-04-16T03:22:13.135Z,73.97
2019-04-16T03:24:41.525Z,73.97
2019-04-16T03:27:10.084Z,73.56
2019-04-16T03:29:39.616Z,74.20
2019-04-16T03:32:13.129Z,73.61
2019-04-16T03:34:38.116Z,73.81
2019-04-16T03:37:06.503Z,73.47
2019-04-16T03:39:34.886Z,74.18
2019-04-16T03:42:03.554Z,74.94
2019-04-16T03:44:33.469Z,74.51
2019-04-16T03:47:02.260Z,74.10
2019-04-16T03:49:30.668Z,73.78
2019-04-16T03:51:59.066Z,73.78
2019-04-16T03:54:27.447Z,73.53
2019-04-16T03:56:55.922Z,73.67
2019-04-16T03:59:24.390Z,73.53
2019-04-16T04:01:52.769Z,73.66
2019-04-16T04:04:21.183Z,73.12
2019-04-16T04:06:49.568Z,73.83
2019-04-16T04:09:18.984Z,74.25
2019-04-16T04:11:48.084Z,74.25
2019-04-16T04:14:16.469Z,73.45
2019-04-16T04:16:44.861Z,73.73
2019-04-16T04:19:15.121Z,73.56
2019-04-16T04:21:43.397Z,73.29
2019-04-16T04:24:11.776Z,74.62
2019-04-16T04:26:42.029Z,74.51
2019-04-16T04:29:11.751Z,73.54
2019-04-16T04:31:40.154Z,73.39
2019-04-16T04:34:10.742Z,73.94
2019-04-16T04:36:38.674Z,73.19
2019-04-16T04:39:09.943Z,73.84
2019-04-16T04:41:37.210Z,73.95
2019-04-16T04:44:05.618Z,73.67
2019-04-16T04:46:34.001Z,73.42
2019-04-16T04:49:02.420Z,72.92
2019-04-16T04:51:30.800Z,73.02
2019-04-16T04:54:01.663Z,73.67
2019-04-16T04:56:36.209Z,73.37
2019-04-16T04:59:05.268Z,73.10
2019-04-16T05:01:34.464Z,73.35
2019-04-16T05:04:07.232Z,73.11
2019-04-16T05:06:37.283Z,72.91
2019-04-16T05:09:07.208Z,72.78
2019-04-16T05:11:35.616Z,72.46
2019-04-16T05:14:04.039Z,72.46
2019-04-16T05:16:34.442Z,72.91
2019-04-16T05:19:02.563Z,72.53
2019-04-16T05:21:30.945Z,72.38
2019-04-16T05:23:59.335Z,72.10
2019-04-16T05:26:27.741Z,71.99
2019-04-16T05:28:57.818Z,71.84
2019-04-16T05:31:26.497Z,71.87
2019-04-16T05:33:54.867Z,71.83
2019-04-16T05:36:23.280Z,70.97
2019-04-16T05:38:56.307Z,71.12
2019-04-16T05:41:27.579Z,71.12
2019-04-16T05:43:58.483Z,70.51
2019-04-16T05:46:28.451Z,69.78
2019-04-16T05:48:57.905Z,69.30
2019-04-16T05:51:28.269Z,70.08
2019-04-16T05:54:01.043Z,69.17
2019-04-16T05:56:31.039Z,68.94
2019-04-16T05:58:59.622Z,68.04
2019-04-16T06:01:31.181Z,67.95
2019-04-16T06:03:59.558Z,67.77
2019-04-16T06:06:31.196Z,67.83
2019-04-16T06:08:59.035Z,67.12
2019-04-16T06:11:32.733Z,63.81
2019-04-16T06:14:01.911Z,60.12
2019-04-16T06:16:37.852Z,59.43
2019-04-16T06:19:24.881Z,57.77
2019-04-16T06:22:13.165Z,57.99
2019-04-16T06:24:58.625Z,58.78
2019-04-16T06:27:45.076Z,57.38
2019-04-16T06:30:33.851Z,56.15
2019-04-16T06:33:19.123Z,53.81
2019-04-16T06:36:08.036Z,55.21
2019-04-16T06:38:42.966Z,55.62
2019-04-16T06:41:13.568Z,54.96
2019-04-16T06:43:58.347Z,53.27
2019-04-16T06:46:40.586Z,52.56
2019-04-16T06:49:17.818Z,51.81
2019-04-16T06:52:04.420Z,51.31
2019-04-16T06:54:40.230Z,50.53
2019-04-16T06:57:17.084Z,50.60
2019-04-16T06:59:52.963Z,49.03
2019-04-16T07:02:45.648Z,50.09
2019-04-16T07:05:32.999Z,49.26
2019-04-16T07:08:09.275Z,49.98
2019-04-16T07:10:56.914Z,51.46
2019-04-16T07:13:25.902Z,51.55
2019-04-16T07:15:57.753Z,50.68
2019-04-16T07:18:29.000Z,49.78
2019-04-16T07:20:57.412Z,47.74
2019-04-16T07:23:26.164Z,46.96
2019-04-16T07:25:54.829Z,47.45
2019-04-16T07:28:47.437Z,46.30
2019-04-16T07:31:33.447Z,44.13
2019-04-16T07:33:58.172Z,43.49
2019-04-16T07:36:47.625Z,42.32
2019-04-16T07:39:37.207Z,41.67
2019-04-16T07:42:26.205Z,42.36
2019-04-16T07:45:13.288Z,43.38
2019-04-16T07:47:51.683Z,40.88
2019-04-16T07:50:38.210Z,39.26
2019-04-16T07:53:14.485Z,37.67
2019-04-16T07:55:44.515Z,36.51
2019-04-16T07:58:12.949Z,34.87
2019-04-16T08:00:41.574Z,35.06
2019-04-16T08:03:13.794Z,35.62
2019-04-16T08:05:42.170Z,34.30
2019-04-16T08:08:10.584Z,34.89
2019-04-16T08:10:41.470Z,34.90
2019-04-16T08:13:14.444Z,34.81
2019-04-16T08:15:42.825Z,36.22
2019-04-16T08:18:11.213Z,36.10
2019-04-16T08:20:43.621Z,35.09
2019-04-16T08:23:25.520Z,37.15
2019-04-16T08:26:02.652Z,36.94
2019-04-16T08:28:24.790Z,37.91
2019-04-16T08:30:53.253Z,38.31
2019-04-16T08:33:21.672Z,39.69
2019-04-16T08:35:51.290Z,41.29
2019-04-16T08:38:19.670Z,43.38
2019-04-16T08:40:48.081Z,43.72
2019-04-16T08:43:22.332Z,43.52
2019-04-16T08:45:50.636Z,43.12
2019-04-16T08:48:19.076Z,43.99
2019-04-16T08:50:49.332Z,45.59
2019-04-16T08:53:17.742Z,45.60
2019-04-16T08:55:48.661Z,45.65
2019-04-16T08:58:17.066Z,47.17
2019-04-16T09:00:47.755Z,47.83
2019-04-16T09:03:16.262Z,49.00
2019-04-16T09:05:44.638Z,49.09
2019-04-16T09:08:26.670Z,48.08
2019-04-16T09:10:55.077Z,46.98
2019-04-16T09:13:25.152Z,47.01
2019-04-16T09:15:53.835Z,48.71
2019-04-16T09:18:40.026Z,47.59
2019-04-16T09:21:10.545Z,46.36
2019-04-16T09:23:38.541Z,46.94
2019-04-16T09:26:22.185Z,48.92
2019-04-16T09:28:49.976Z,49.01
2019-04-16T09:31:31.869Z,48.66
2019-04-16T09:34:06.442Z,49.01
2019-04-16T09:36:41.546Z,48.08
2019-04-16T09:39:18.979Z,47.59
2019-04-16T09:41:47.855Z,47.29
2019-04-16T09:44:16.253Z,48.87
2019-04-16T09:46:51.064Z,47.94
2019-04-16T09:49:14.826Z,46.36
2019-04-16T09:51:50.407Z,46.31
2019-04-16T09:54:17.202Z,46.31
2019-04-16T09:56:45.703Z,46.05
2019-04-16T09:59:17.105Z,46.62
2019-04-16T10:01:47.158Z,45.30
2019-04-16T10:04:17.181Z,45.89
2019-04-16T10:06:45.576Z,45.22
2019-04-16T10:09:19.835Z,45.56
2019-04-16T10:11:44.129Z,44.84
2019-04-16T10:14:22.155Z,46.25
2019-04-16T10:16:50.642Z,45.17
2019-04-16T10:19:21.257Z,45.53
2019-04-16T10:21:54.230Z,45.46
2019-04-16T10:24:34.113Z,46.59
2019-04-16T10:27:04.336Z,47.70
2019-04-16T10:29:53.150Z,43.85
2019-04-16T10:32:22.322Z,44.21
2019-04-16T10:35:00.736Z,41.50
2019-04-16T10:37:32.013Z,42.13
2019-04-16T10:43:22.071Z,40.75
2019-04-16T10:45:54.662Z,40.72
2019-04-16T10:51:16.659Z,41.98
2019-04-16T10:57:01.019Z,39.97
2019-04-16T11:00:16.122Z,40.78
2019-04-16T11:06:01.086Z,40.06
2019-04-16T11:09:03.392Z,40.57
2019-04-16T11:11:36.140Z,40.86
2019-04-16T11:14:38.705Z,41.08
2019-04-16T11:17:24.166Z,39.91
2019-04-16T11:20:21.121Z,38.99
2019-04-16T11:23:09.554Z,39.43
2019-04-16T11:35:07.449Z,39.22
2019-04-16T11:38:05.900Z,39.19
2019-04-16T11:50:14.958Z,38.72
2019-04-16T11:52:48.288Z,35.77
2019-04-16T11:56:11.413Z,35.75
2019-04-16T11:58:53.223Z,35.48
2019-04-16T12:05:06.828Z,36.24
2019-04-16T12:13:55.112Z,34.60
2019-04-16T13:25:16.003Z,44.82
2019-04-16T13:27:47.807Z,45.63
2019-04-16T13:30:17.459Z,45.20
2019-04-16T13:32:45.881Z,45.10
2019-04-16T13:35:14.505Z,43.94
2019-04-16T13:37:42.920Z,44.52
2019-04-16T13:40:17.457Z,45.43
2019-04-16T13:42:56.101Z,46.50
2019-04-16T13:45:27.705Z,44.81
2019-04-16T13:47:56.255Z,45.42
2019-04-16T13:50:35.968Z,45.39
2019-04-16T13:53:06.238Z,44.79
2019-04-16T13:55:49.316Z,45.92
2019-04-16T13:58:25.636Z,46.00
2019-04-16T14:01:13.832Z,46.24
2019-04-16T14:03:42.245Z,46.26
2019-04-16T14:06:11.260Z,46.37
2019-04-16T14:08:39.916Z,47.59
2019-04-16T14:11:08.309Z,47.08
2019-04-16T14:13:42.070Z,44.40
2019-04-16T14:16:12.788Z,43.81
2019-04-16T14:18:46.855Z,43.56
2019-04-16T14:21:17.972Z,42.52
2019-04-16T14:23:52.663Z,42.84
2019-04-16T14:26:21.185Z,42.86
2019-04-16T14:28:52.476Z,43.39
2019-04-16T14:31:25.153Z,42.06
2019-04-16T14:34:07.336Z,42.95
2019-04-16T14:36:35.757Z,41.85
2019-04-16T14:39:16.761Z,43.06
2019-04-16T14:41:50.193Z,41.73
2019-04-16T14:44:39.977Z,41.21
2019-04-16T14:47:16.140Z,42.06
2019-04-16T14:49:44.672Z,41.49
2019-04-16T14:52:15.592Z,43.07
2019-04-16T14:55:01.966Z,40.28
2019-04-16T14:57:36.706Z,41.33
2019-04-16T15:00:27.681Z,41.17
2019-04-16T15:02:58.099Z,41.55
2019-04-16T15:05:28.144Z,41.50
2019-04-16T15:07:58.437Z,40.29
2019-04-16T15:10:44.062Z,41.24
2019-04-16T15:13:19.606Z,41.97
2019-04-16T15:16:13.209Z,41.74
2019-04-16T15:18:37.251Z,41.36
2019-04-16T15:21:11.986Z,42.15
2019-04-16T15:23:39.150Z,30.01
2019-04-16T15:26:09.364Z,28.84
2019-04-16T15:28:42.392Z,27.75
2019-04-16T15:31:15.903Z,26.16
2019-04-16T15:33:49.036Z,27.30
2019-04-16T15:36:19.786Z,26.12
2019-04-16T15:38:50.930Z,24.60
2019-04-16T15:41:29.132Z,24.34
2019-04-16T15:44:24.069Z,25.48
2019-04-16T15:47:13.326Z,24.18
2019-04-16T15:49:41.131Z,24.37
2019-04-16T15:52:27.328Z,24.95
2019-04-16T15:55:00.814Z,25.43
2019-04-16T15:57:36.500Z,26.54
2019-04-16T16:00:31.994Z,25.70
2019-04-16T16:03:20.742Z,25.80
2019-04-16T16:05:59.830Z,25.78
2019-04-16T16:08:35.757Z,27.05
2019-04-16T16:11:04.647Z,27.05
2019-04-16T16:13:33.075Z,26.89
2019-04-16T16:16:03.965Z,26.43
2019-04-16T16:18:32.360Z,27.01
2019-04-16T16:21:03.555Z,26.44
2019-04-16T16:23:34.153Z,26.67
2019-04-16T16:26:02.002Z,26.11
2019-04-16T16:28:30.717Z,26.49
2019-04-16T16:31:02.647Z,26.65
2019-04-16T16:33:34.172Z,26.96
2019-04-16T16:36:02.697Z,25.98
2019-04-16T16:38:31.068Z,27.23
2019-04-16T16:40:59.603Z,27.62
2019-04-16T16:43:27.973Z,27.50
2019-04-16T16:46:00.901Z,27.57
2019-04-16T16:48:29.556Z,26.51
2019-04-16T16:50:57.941Z,27.45
2019-04-16T16:53:50.120Z,27.04
2019-04-16T16:56:26.141Z,26.82
2019-04-16T16:58:56.403Z,27.13
2019-04-16T17:01:34.938Z,27.54
2019-04-16T17:04:08.040Z,28.41
2019-04-16T17:06:38.857Z,28.45
2019-04-16T17:09:13.295Z,28.74
2019-04-16T17:11:43.303Z,27.52
2019-04-16T17:14:14.911Z,28.65
2019-04-16T17:16:43.290Z,28.67
2019-04-16T17:19:14.780Z,27.84
2019-04-16T17:21:43.245Z,28.33
2019-04-16T17:24:14.338Z,28.07
2019-04-16T17:26:46.937Z,27.83
2019-04-16T17:29:16.832Z,28.19
2019-04-16T17:31:45.196Z,28.56
2019-04-16T17:34:13.605Z,28.64
2019-04-16T17:36:44.498Z,28.54
2019-04-16T17:39:14.696Z,28.35
2019-04-16T17:42:05.031Z,28.46
2019-04-16T17:44:42.629Z,28.61
2019-04-16T17:47:33.268Z,28.60
2019-04-16T17:50:05.870Z,28.60
2019-04-16T17:52:41.763Z,28.98
2019-04-16T17:55:25.062Z,29.42
2019-04-16T17:57:56.590Z,29.32
2019-04-16T18:00:43.751Z,29.27
2019-04-16T18:03:19.798Z,29.66
2019-04-16T18:05:49.823Z,37.07
2019-04-16T18:08:19.875Z,42.31
2019-04-16T18:10:49.901Z,43.91
2019-04-16T18:13:31.938Z,44.74
2019-04-16T18:16:09.738Z,45.67
2019-04-16T18:18:39.889Z,46.86
2019-04-16T18:21:30.007Z,46.39
2019-04-16T18:24:13.143Z,46.68
2019-04-16T18:26:59.618Z,47.97
2019-04-16T18:29:35.456Z,47.46
2019-04-16T18:32:16.638Z,48.93
2019-04-16T18:34:56.792Z,49.69
2019-04-16T18:37:43.120Z,50.02
2019-04-16T18:40:21.542Z,50.46
2019-04-16T18:43:04.327Z,51.16
2019-04-16T18:45:52.407Z,51.69
2019-04-16T18:48:44.596Z,52.47
2019-04-16T18:51:09.542Z,52.79
2019-04-16T18:53:43.392Z,53.02
2019-04-16T18:56:14.832Z,53.82
2019-04-16T18:58:44.398Z,54.24
2019-04-16T19:01:24.782Z,54.58
2019-04-16T19:03:57.892Z,55.66
2019-04-16T19:06:28.872Z,56.30
2019-04-16T19:08:57.237Z,56.30
2019-04-16T19:11:26.026Z,56.60
2019-04-16T19:16:41.879Z,57.50
2019-04-16T19:19:11.193Z,57.40
2019-04-16T19:21:42.361Z,58.03
2019-04-16T19:24:14.099Z,58.78
2019-04-16T19:26:42.635Z,58.77
2019-04-16T19:29:14.379Z,59.06
2019-04-16T19:31:43.634Z,58.75
2019-04-16T19:34:14.215Z,58.81
2019-04-16T19:36:42.632Z,59.79
2019-04-16T19:39:15.206Z,60.20
2019-04-16T19:41:41.512Z,59.61
2019-04-16T19:44:12.952Z,59.38
2019-04-16T19:46:41.352Z,59.00
2019-04-16T19:49:09.941Z,56.63
2019-04-16T19:51:42.093Z,55.67
2019-04-16T19:54:10.494Z,54.40
2019-04-16T19:56:38.978Z,53.65
2019-04-16T19:59:09.775Z,52.53
2019-04-16T20:01:49.187Z,51.49
2019-04-16T20:04:21.534Z,50.91
2019-04-16T20:06:49.151Z,51.05
2019-04-16T20:09:21.528Z,51.14
2019-04-16T20:11:54.696Z,50.66
2019-04-16T20:14:22.527Z,50.33
2019-04-16T20:16:50.918Z,50.83
2019-04-16T20:19:19.298Z,51.12
2019-04-16T20:21:50.201Z,51.00
2019-04-16T20:24:18.593Z,50.78
2019-04-16T20:26:48.959Z,50.87
2019-04-16T20:29:20.919Z,51.02
2019-04-16T20:31:49.331Z,50.95
2019-04-16T20:34:21.252Z,50.53
2019-04-16T20:36:52.244Z,50.69
2019-04-16T20:39:30.131Z,51.04
2019-04-16T20:42:06.846Z,51.06
2019-04-16T20:44:46.047Z,50.92
2019-04-16T20:47:21.405Z,50.78
2019-04-16T20:49:50.191Z,51.04
2019-04-16T20:55:08.301Z,50.79
2019-04-16T20:57:40.354Z,50.67
2019-04-16T21:00:12.281Z,50.46
2019-04-16T21:02:43.202Z,50.85
2019-04-16T21:05:21.913Z,50.75
2019-04-16T21:07:47.236Z,50.20
2019-04-16T21:10:17.100Z,50.42
2019-04-16T21:12:54.903Z,50.25
2019-04-16T21:15:27.521Z,50.49
2019-04-16T21:17:54.124Z,50.14
2019-04-16T21:20:22.522Z,50.50
2019-04-16T21:22:50.961Z,50.59
2019-04-16T21:25:23.280Z,50.60
2019-04-16T21:27:57.320Z,50.48
2019-04-16T21:30:30.517Z,50.44
2019-04-16T21:33:06.004Z,50.57
2019-04-16T21:35:39.090Z,50.64
2019-04-16T21:38:09.107Z,50.55
2019-04-16T21:40:37.498Z,50.45
2019-04-16T21:43:08.064Z,50.83
2019-04-16T21:45:38.159Z,50.36
2019-04-16T21:48:06.130Z,50.50
2019-04-16T21:50:38.524Z,50.36
2019-04-16T21:53:06.939Z,50.45
2019-04-16T21:55:36.106Z,50.55
2019-04-16T21:58:04.653Z,50.45
2019-04-16T22:00:37.580Z,50.67
2019-04-16T22:03:10.918Z,50.93
2019-04-16T22:05:39.358Z,50.85
2019-04-16T22:08:07.760Z,50.13
2019-04-16T22:10:36.160Z,50.47
2019-04-16T22:13:04.672Z,50.27
2019-04-16T22:15:33.400Z,50.18
2019-04-16T22:18:01.995Z,50.60
2019-04-16T22:20:35.724Z,50.33
2019-04-16T22:23:08.169Z,50.35
2019-04-16T22:28:32.742Z,50.67
2019-04-16T22:31:05.487Z,50.54
2019-04-16T22:34:05.788Z,50.29
2019-04-16T22:36:34.662Z,50.93
2019-04-16T22:39:05.262Z,50.70
2019-04-16T22:41:38.751Z,50.71
2019-04-16T22:44:17.845Z,50.85
2019-04-16T22:46:56.886Z,50.89
2019-04-16T22:49:25.287Z,51.18
2019-04-16T22:51:53.661Z,50.92
2019-04-16T22:54:24.699Z,50.96
2019-04-16T22:56:57.781Z,51.25
2019-04-16T22:59:26.005Z,51.39
2019-04-16T23:01:54.509Z,51.51
2019-04-16T23:04:25.863Z,51.81
2019-04-16T23:06:56.833Z,51.78
2019-04-16T23:09:29.367Z,51.89
2019-04-16T23:11:57.762Z,52.31
2019-04-16T23:14:26.154Z,52.11
2019-04-16T23:16:54.553Z,52.07
2019-04-16T23:19:22.935Z,52.66
2019-04-16T23:21:52.565Z,52.48
2019-04-16T23:24:24.204Z,52.05
2019-04-16T23:26:55.418Z,52.83
2019-04-16T23:29:26.308Z,52.81
2019-04-16T23:31:56.030Z,53.10
2019-04-16T23:34:25.487Z,53.03
2019-04-16T23:36:53.904Z,53.22
2019-04-16T23:39:22.355Z,53.63
2019-04-16T23:41:50.758Z,53.81
2019-04-16T23:44:27.875Z,53.85
2019-04-16T23:47:08.919Z,53.50
2019-04-16T23:49:46.848Z,53.86
2019-04-16T23:52:16.908Z,53.78
2019-04-16T23:55:03.704Z,53.36
2019-04-16T23:57:36.554Z,54.44
